sensor_id;sensor_type;location;lat;lon;timestamp;temperature;humidity
16666;DHT22;8446;50.998;6.250;2023-05-07T00:02:16;14.70;99.90
16666;DHT22;8446;50.998;6.250;2023-05-07T00:04:44;14.70;99.90
16666;DHT22;8446;50.998;6.250;2023-05-07T00:07:11;14.70;99.90
16666;DHT22;8446;50.998;6.250;2023-05-07T00:09:38;14.70;99.90
16666;DHT22;8446;50.998;6.250;2023-05-07T00:12:05;14.70;99.90
16666;DHT22;8446;50.998;6.250;2023-05-07T00:14:32;14.70;99.90
16666;DHT22;8446;50.998;6.250;2023-05-07T00:16:59;14.80;99.90
16666;DHT22;8446;50.998;6.250;2023-05-07T00:19:26;14.80;99.90
16666;DHT22;8446;50.998;6.250;2023-05-07T00:21:54;14.80;99.90
16666;DHT22;8446;50.998;6.250;2023-05-07T00:24:21;14.80;99.90
16666;DHT22;8446;50.998;6.250;2023-05-07T00:26:48;14.80;99.90
16666;DHT22;8446;50.998;6.250;2023-05-07T00:29:15;14.80;99.90
16666;DHT22;8446;50.998;6.250;2023-05-07T00:31:41;14.80;99.90
16666;DHT22;8446;50.998;6.250;2023-05-07T00:34:08;14.80;99.90
16666;DHT22;8446;50.998;6.250;2023-05-07T00:36:35;14.70;99.90
16666;DHT22;8446;50.998;6.250;2023-05-07T00:39:03;14.70;99.90
16666;DHT22;8446;50.998;6.250;2023-05-07T00:41:30;14.70;99.90
16666;DHT22;8446;50.998;6.250;2023-05-07T00:43:57;14.60;99.90
16666;DHT22;8446;50.998;6.250;2023-05-07T00:46:24;14.60;99.90
16666;DHT22;8446;50.998;6.250;2023-05-07T00:48:51;14.50;99.90
16666;DHT22;8446;50.998;6.250;2023-05-07T00:51:18;14.50;99.90
16666;DHT22;8446;50.998;6.250;2023-05-07T00:53:46;14.50;99.90
16666;DHT22;8446;50.998;6.250;2023-05-07T00:56:14;14.50;99.90
16666;DHT22;8446;50.998;6.250;2023-05-07T00:58:41;14.40;99.90
16666;DHT22;8446;50.998;6.250;2023-05-07T01:01:08;14.40;99.90
16666;DHT22;8446;50.998;6.250;2023-05-07T01:03:35;14.40;99.90
16666;DHT22;8446;50.998;6.250;2023-05-07T01:06:03;14.40;99.90
16666;DHT22;8446;50.998;6.250;2023-05-07T01:08:31;14.40;99.90
16666;DHT22;8446;50.998;6.250;2023-05-07T01:11:00;14.30;99.90
16666;DHT22;8446;50.998;6.250;2023-05-07T01:13:29;14.20;99.90
16666;DHT22;8446;50.998;6.250;2023-05-07T01:15:56;14.20;99.90
16666;DHT22;8446;50.998;6.250;2023-05-07T01:18:23;14.20;99.90
16666;DHT22;8446;50.998;6.250;2023-05-07T01:20:51;14.10;99.90
16666;DHT22;8446;50.998;6.250;2023-05-07T01:23:20;14.10;99.90
16666;DHT22;8446;50.998;6.250;2023-05-07T01:25:51;14.10;99.90
16666;DHT22;8446;50.998;6.250;2023-05-07T01:28:18;14.10;99.90
16666;DHT22;8446;50.998;6.250;2023-05-07T01:30:49;14.00;99.90
16666;DHT22;8446;50.998;6.250;2023-05-07T01:33:20;14.00;99.90
16666;DHT22;8446;50.998;6.250;2023-05-07T01:35:51;14.00;99.90
16666;DHT22;8446;50.998;6.250;2023-05-07T01:38:21;14.00;99.90
16666;DHT22;8446;50.998;6.250;2023-05-07T01:40:49;14.00;99.90
16666;DHT22;8446;50.998;6.250;2023-05-07T01:43:17;14.00;99.90
16666;DHT22;8446;50.998;6.250;2023-05-07T01:45:45;14.00;99.90
16666;DHT22;8446;50.998;6.250;2023-05-07T01:48:14;14.10;99.90
16666;DHT22;8446;50.998;6.250;2023-05-07T01:50:41;14.10;99.90
16666;DHT22;8446;50.998;6.250;2023-05-07T01:53:09;14.00;99.90
16666;DHT22;8446;50.998;6.250;2023-05-07T01:55:37;14.00;99.90
16666;DHT22;8446;50.998;6.250;2023-05-07T01:58:05;14.00;99.90
16666;DHT22;8446;50.998;6.250;2023-05-07T02:00:32;14.00;99.90
16666;DHT22;8446;50.998;6.250;2023-05-07T02:02:59;13.90;99.90
16666;DHT22;8446;50.998;6.250;2023-05-07T02:05:26;13.90;99.90
16666;DHT22;8446;50.998;6.250;2023-05-07T02:07:52;13.80;99.90
16666;DHT22;8446;50.998;6.250;2023-05-07T02:10:19;13.80;99.90
16666;DHT22;8446;50.998;6.250;2023-05-07T02:12:47;13.80;99.90
16666;DHT22;8446;50.998;6.250;2023-05-07T02:15:14;13.80;99.90
16666;DHT22;8446;50.998;6.250;2023-05-07T02:18:00;13.80;99.90
16666;DHT22;8446;50.998;6.250;2023-05-07T02:20:27;13.80;99.90
16666;DHT22;8446;50.998;6.250;2023-05-07T02:22:54;13.80;99.90
16666;DHT22;8446;50.998;6.250;2023-05-07T02:25:21;13.80;99.90
16666;DHT22;8446;50.998;6.250;2023-05-07T02:27:49;13.70;99.90
16666;DHT22;8446;50.998;6.250;2023-05-07T02:30:16;13.70;99.90
16666;DHT22;8446;50.998;6.250;2023-05-07T02:32:43;13.60;99.90
16666;DHT22;8446;50.998;6.250;2023-05-07T02:35:10;13.50;99.90
16666;DHT22;8446;50.998;6.250;2023-05-07T02:37:37;13.50;99.90
16666;DHT22;8446;50.998;6.250;2023-05-07T02:40:05;13.40;99.90
16666;DHT22;8446;50.998;6.250;2023-05-07T02:42:32;13.20;99.90
16666;DHT22;8446;50.998;6.250;2023-05-07T02:45:00;13.20;99.90
16666;DHT22;8446;50.998;6.250;2023-05-07T02:47:27;13.20;99.90
16666;DHT22;8446;50.998;6.250;2023-05-07T02:49:54;13.20;99.90
16666;DHT22;8446;50.998;6.250;2023-05-07T02:52:21;13.20;99.90
16666;DHT22;8446;50.998;6.250;2023-05-07T02:54:48;13.20;99.90
16666;DHT22;8446;50.998;6.250;2023-05-07T02:57:15;13.20;99.90
16666;DHT22;8446;50.998;6.250;2023-05-07T02:59:42;13.20;99.90
16666;DHT22;8446;50.998;6.250;2023-05-07T03:02:10;13.20;99.90
16666;DHT22;8446;50.998;6.250;2023-05-07T03:04:37;13.20;99.90
16666;DHT22;8446;50.998;6.250;2023-05-07T03:07:04;13.30;99.90
16666;DHT22;8446;50.998;6.250;2023-05-07T03:09:31;13.30;99.90
16666;DHT22;8446;50.998;6.250;2023-05-07T03:11:58;13.20;99.90
16666;DHT22;8446;50.998;6.250;2023-05-07T03:14:25;13.20;99.90
16666;DHT22;8446;50.998;6.250;2023-05-07T03:16:52;13.20;99.90
16666;DHT22;8446;50.998;6.250;2023-05-07T03:19:20;13.10;99.90
16666;DHT22;8446;50.998;6.250;2023-05-07T03:21:47;13.10;99.90
16666;DHT22;8446;50.998;6.250;2023-05-07T03:24:14;13.10;99.90
16666;DHT22;8446;50.998;6.250;2023-05-07T03:26:40;13.10;99.90
16666;DHT22;8446;50.998;6.250;2023-05-07T03:29:07;13.10;99.90
16666;DHT22;8446;50.998;6.250;2023-05-07T03:31:34;13.10;99.90
16666;DHT22;8446;50.998;6.250;2023-05-07T03:34:01;13.10;99.90
16666;DHT22;8446;50.998;6.250;2023-05-07T03:36:29;13.10;99.90
16666;DHT22;8446;50.998;6.250;2023-05-07T03:38:56;13.10;99.90
16666;DHT22;8446;50.998;6.250;2023-05-07T03:41:23;13.10;99.90
16666;DHT22;8446;50.998;6.250;2023-05-07T03:43:51;13.00;99.90
16666;DHT22;8446;50.998;6.250;2023-05-07T03:46:18;13.00;99.90
16666;DHT22;8446;50.998;6.250;2023-05-07T03:48:44;13.00;99.90
16666;DHT22;8446;50.998;6.250;2023-05-07T03:51:11;13.00;99.90
16666;DHT22;8446;50.998;6.250;2023-05-07T03:53:39;12.90;99.90
16666;DHT22;8446;50.998;6.250;2023-05-07T03:56:07;12.90;99.90
16666;DHT22;8446;50.998;6.250;2023-05-07T03:58:33;12.80;99.90
16666;DHT22;8446;50.998;6.250;2023-05-07T04:01:00;12.70;99.90
16666;DHT22;8446;50.998;6.250;2023-05-07T04:03:27;12.70;99.90
16666;DHT22;8446;50.998;6.250;2023-05-07T04:05:54;12.70;99.90
16666;DHT22;8446;50.998;6.250;2023-05-07T04:08:21;12.70;99.90
16666;DHT22;8446;50.998;6.250;2023-05-07T04:10:54;12.80;99.90
16666;DHT22;8446;50.998;6.250;2023-05-07T04:13:21;12.80;99.90
16666;DHT22;8446;50.998;6.250;2023-05-07T04:15:48;12.80;99.90
16666;DHT22;8446;50.998;6.250;2023-05-07T04:18:15;12.80;99.90
16666;DHT22;8446;50.998;6.250;2023-05-07T04:20:42;12.90;99.90
16666;DHT22;8446;50.998;6.250;2023-05-07T04:23:09;13.00;99.90
16666;DHT22;8446;50.998;6.250;2023-05-07T04:25:36;13.00;99.90
16666;DHT22;8446;50.998;6.250;2023-05-07T04:28:04;13.10;99.90
16666;DHT22;8446;50.998;6.250;2023-05-07T04:30:31;13.10;99.90
16666;DHT22;8446;50.998;6.250;2023-05-07T04:32:58;13.20;99.90
16666;DHT22;8446;50.998;6.250;2023-05-07T04:35:25;13.20;99.90
16666;DHT22;8446;50.998;6.250;2023-05-07T04:37:52;13.30;99.90
16666;DHT22;8446;50.998;6.250;2023-05-07T04:40:18;13.30;99.90
16666;DHT22;8446;50.998;6.250;2023-05-07T04:42:45;13.30;99.90
16666;DHT22;8446;50.998;6.250;2023-05-07T04:45:14;13.30;99.90
16666;DHT22;8446;50.998;6.250;2023-05-07T04:47:40;13.40;99.90
16666;DHT22;8446;50.998;6.250;2023-05-07T04:50:08;13.40;99.90
16666;DHT22;8446;50.998;6.250;2023-05-07T04:52:35;13.40;99.90
16666;DHT22;8446;50.998;6.250;2023-05-07T04:55:02;13.40;99.90
16666;DHT22;8446;50.998;6.250;2023-05-07T04:57:30;13.40;99.90
16666;DHT22;8446;50.998;6.250;2023-05-07T04:59:57;13.50;99.90
16666;DHT22;8446;50.998;6.250;2023-05-07T05:02:25;13.50;99.90
16666;DHT22;8446;50.998;6.250;2023-05-07T05:04:52;13.60;99.90
16666;DHT22;8446;50.998;6.250;2023-05-07T05:07:19;13.60;99.90
16666;DHT22;8446;50.998;6.250;2023-05-07T05:09:45;13.60;99.90
16666;DHT22;8446;50.998;6.250;2023-05-07T05:12:12;13.60;99.90
16666;DHT22;8446;50.998;6.250;2023-05-07T05:14:39;13.70;99.90
16666;DHT22;8446;50.998;6.250;2023-05-07T05:17:06;13.70;99.90
16666;DHT22;8446;50.998;6.250;2023-05-07T05:19:34;13.70;99.90
16666;DHT22;8446;50.998;6.250;2023-05-07T05:22:01;13.80;99.90
16666;DHT22;8446;50.998;6.250;2023-05-07T05:24:29;13.80;99.90
16666;DHT22;8446;50.998;6.250;2023-05-07T05:26:56;13.80;99.90
16666;DHT22;8446;50.998;6.250;2023-05-07T05:29:23;13.90;99.90
16666;DHT22;8446;50.998;6.250;2023-05-07T05:31:49;14.00;99.90
16666;DHT22;8446;50.998;6.250;2023-05-07T05:34:16;14.00;99.90
16666;DHT22;8446;50.998;6.250;2023-05-07T05:36:46;14.10;99.90
16666;DHT22;8446;50.998;6.250;2023-05-07T05:39:13;14.20;99.90
16666;DHT22;8446;50.998;6.250;2023-05-07T05:41:40;14.30;99.90
16666;DHT22;8446;50.998;6.250;2023-05-07T05:44:07;14.40;99.90
16666;DHT22;8446;50.998;6.250;2023-05-07T05:46:35;14.50;99.90
16666;DHT22;8446;50.998;6.250;2023-05-07T05:49:01;14.60;99.90
16666;DHT22;8446;50.998;6.250;2023-05-07T05:51:28;14.60;99.90
16666;DHT22;8446;50.998;6.250;2023-05-07T05:53:57;14.70;99.90
16666;DHT22;8446;50.998;6.250;2023-05-07T05:56:24;14.80;99.90
16666;DHT22;8446;50.998;6.250;2023-05-07T05:58:51;14.90;99.90
16666;DHT22;8446;50.998;6.250;2023-05-07T06:01:18;15.00;99.90
16666;DHT22;8446;50.998;6.250;2023-05-07T06:03:45;15.10;99.90
16666;DHT22;8446;50.998;6.250;2023-05-07T06:06:12;15.10;99.90
16666;DHT22;8446;50.998;6.250;2023-05-07T06:08:40;15.20;99.90
16666;DHT22;8446;50.998;6.250;2023-05-07T06:11:08;15.20;99.90
16666;DHT22;8446;50.998;6.250;2023-05-07T06:13:35;15.30;99.90
16666;DHT22;8446;50.998;6.250;2023-05-07T06:16:02;15.40;99.90
16666;DHT22;8446;50.998;6.250;2023-05-07T06:18:29;15.50;99.90
16666;DHT22;8446;50.998;6.250;2023-05-07T06:20:56;15.50;99.90
16666;DHT22;8446;50.998;6.250;2023-05-07T06:23:23;15.70;99.90
16666;DHT22;8446;50.998;6.250;2023-05-07T06:25:50;15.80;99.90
16666;DHT22;8446;50.998;6.250;2023-05-07T06:28:19;15.80;99.90
16666;DHT22;8446;50.998;6.250;2023-05-07T06:30:45;16.00;99.90
16666;DHT22;8446;50.998;6.250;2023-05-07T06:33:14;15.90;99.90
16666;DHT22;8446;50.998;6.250;2023-05-07T06:35:41;16.00;99.90
16666;DHT22;8446;50.998;6.250;2023-05-07T06:38:08;16.10;99.90
16666;DHT22;8446;50.998;6.250;2023-05-07T06:40:35;16.20;99.90
16666;DHT22;8446;50.998;6.250;2023-05-07T06:43:01;16.30;99.90
16666;DHT22;8446;50.998;6.250;2023-05-07T06:45:30;16.30;99.90
16666;DHT22;8446;50.998;6.250;2023-05-07T06:47:56;16.40;99.90
16666;DHT22;8446;50.998;6.250;2023-05-07T06:50:23;16.60;99.90
16666;DHT22;8446;50.998;6.250;2023-05-07T06:52:50;16.70;99.90
16666;DHT22;8446;50.998;6.250;2023-05-07T06:55:17;16.80;99.90
16666;DHT22;8446;50.998;6.250;2023-05-07T06:57:44;16.80;99.90
16666;DHT22;8446;50.998;6.250;2023-05-07T07:00:12;16.90;99.90
16666;DHT22;8446;50.998;6.250;2023-05-07T07:02:41;17.00;99.90
16666;DHT22;8446;50.998;6.250;2023-05-07T07:05:08;17.00;99.90
16666;DHT22;8446;50.998;6.250;2023-05-07T07:07:35;17.00;99.90
16666;DHT22;8446;50.998;6.250;2023-05-07T07:10:01;17.10;99.90
16666;DHT22;8446;50.998;6.250;2023-05-07T07:12:30;17.10;99.90
16666;DHT22;8446;50.998;6.250;2023-05-07T07:14:57;17.20;99.90
16666;DHT22;8446;50.998;6.250;2023-05-07T07:17:23;17.30;99.90
16666;DHT22;8446;50.998;6.250;2023-05-07T07:19:52;17.30;99.90
16666;DHT22;8446;50.998;6.250;2023-05-07T07:22:18;17.40;99.90
16666;DHT22;8446;50.998;6.250;2023-05-07T07:24:45;17.50;99.90
16666;DHT22;8446;50.998;6.250;2023-05-07T07:27:12;17.70;99.90
16666;DHT22;8446;50.998;6.250;2023-05-07T07:29:39;17.70;99.90
16666;DHT22;8446;50.998;6.250;2023-05-07T07:32:06;17.70;99.90
16666;DHT22;8446;50.998;6.250;2023-05-07T07:34:32;17.80;99.90
16666;DHT22;8446;50.998;6.250;2023-05-07T07:37:01;17.90;99.90
16666;DHT22;8446;50.998;6.250;2023-05-07T07:39:30;17.90;99.90
16666;DHT22;8446;50.998;6.250;2023-05-07T07:41:57;17.90;99.90
16666;DHT22;8446;50.998;6.250;2023-05-07T07:44:24;18.10;99.90
16666;DHT22;8446;50.998;6.250;2023-05-07T07:46:51;18.30;99.90
16666;DHT22;8446;50.998;6.250;2023-05-07T07:49:18;18.50;99.90
16666;DHT22;8446;50.998;6.250;2023-05-07T07:51:44;18.70;99.90
16666;DHT22;8446;50.998;6.250;2023-05-07T07:54:13;18.80;99.90
16666;DHT22;8446;50.998;6.250;2023-05-07T07:56:40;19.10;99.90
16666;DHT22;8446;50.998;6.250;2023-05-07T07:59:06;19.20;99.90
16666;DHT22;8446;50.998;6.250;2023-05-07T08:01:33;19.60;99.90
16666;DHT22;8446;50.998;6.250;2023-05-07T08:04:00;19.90;99.90
16666;DHT22;8446;50.998;6.250;2023-05-07T08:06:28;20.10;99.90
16666;DHT22;8446;50.998;6.250;2023-05-07T08:08:55;20.30;99.90
16666;DHT22;8446;50.998;6.250;2023-05-07T08:11:23;20.50;99.90
16666;DHT22;8446;50.998;6.250;2023-05-07T08:13:50;20.70;99.90
16666;DHT22;8446;50.998;6.250;2023-05-07T08:16:17;20.70;99.90
16666;DHT22;8446;50.998;6.250;2023-05-07T08:18:44;20.60;99.90
16666;DHT22;8446;50.998;6.250;2023-05-07T08:21:11;20.60;99.90
16666;DHT22;8446;50.998;6.250;2023-05-07T08:23:38;20.30;99.90
16666;DHT22;8446;50.998;6.250;2023-05-07T08:26:05;20.60;99.90
16666;DHT22;8446;50.998;6.250;2023-05-07T08:28:33;20.70;99.90
16666;DHT22;8446;50.998;6.250;2023-05-07T08:31:00;20.60;99.90
16666;DHT22;8446;50.998;6.250;2023-05-07T08:33:27;20.60;99.90
16666;DHT22;8446;50.998;6.250;2023-05-07T08:35:54;20.60;99.90
16666;DHT22;8446;50.998;6.250;2023-05-07T08:38:21;20.60;99.90
16666;DHT22;8446;50.998;6.250;2023-05-07T08:40:47;20.70;99.90
16666;DHT22;8446;50.998;6.250;2023-05-07T08:43:15;20.90;99.90
16666;DHT22;8446;50.998;6.250;2023-05-07T08:45:45;20.90;99.90
16666;DHT22;8446;50.998;6.250;2023-05-07T08:48:15;21.10;99.90
16666;DHT22;8446;50.998;6.250;2023-05-07T08:50:42;21.40;99.90
16666;DHT22;8446;50.998;6.250;2023-05-07T08:53:09;21.60;99.90
16666;DHT22;8446;50.998;6.250;2023-05-07T08:55:36;21.70;99.90
16666;DHT22;8446;50.998;6.250;2023-05-07T08:58:03;21.80;99.90
16666;DHT22;8446;50.998;6.250;2023-05-07T09:00:30;21.80;99.90
16666;DHT22;8446;50.998;6.250;2023-05-07T09:02:58;22.10;99.90
16666;DHT22;8446;50.998;6.250;2023-05-07T09:05:24;22.30;99.90
16666;DHT22;8446;50.998;6.250;2023-05-07T09:07:51;22.00;99.90
16666;DHT22;8446;50.998;6.250;2023-05-07T09:10:18;22.30;99.90
16666;DHT22;8446;50.998;6.250;2023-05-07T09:12:47;22.50;99.90
16666;DHT22;8446;50.998;6.250;2023-05-07T09:15:14;22.70;99.90
16666;DHT22;8446;50.998;6.250;2023-05-07T09:17:41;23.00;99.90
16666;DHT22;8446;50.998;6.250;2023-05-07T09:20:10;23.00;99.90
16666;DHT22;8446;50.998;6.250;2023-05-07T09:22:37;23.10;99.90
16666;DHT22;8446;50.998;6.250;2023-05-07T09:25:05;23.00;99.90
16666;DHT22;8446;50.998;6.250;2023-05-07T09:27:32;22.90;99.90
16666;DHT22;8446;50.998;6.250;2023-05-07T09:29:59;22.90;99.90
16666;DHT22;8446;50.998;6.250;2023-05-07T09:32:25;23.00;99.90
16666;DHT22;8446;50.998;6.250;2023-05-07T09:34:53;23.10;99.90
16666;DHT22;8446;50.998;6.250;2023-05-07T09:37:21;23.20;99.90
16666;DHT22;8446;50.998;6.250;2023-05-07T09:39:50;23.20;99.90
16666;DHT22;8446;50.998;6.250;2023-05-07T09:42:23;23.30;99.90
16666;DHT22;8446;50.998;6.250;2023-05-07T09:44:50;23.30;99.90
16666;DHT22;8446;50.998;6.250;2023-05-07T09:47:19;23.20;99.90
16666;DHT22;8446;50.998;6.250;2023-05-07T09:49:48;23.10;99.90
16666;DHT22;8446;50.998;6.250;2023-05-07T09:52:15;23.20;99.90
16666;DHT22;8446;50.998;6.250;2023-05-07T09:54:45;23.30;99.90
16666;DHT22;8446;50.998;6.250;2023-05-07T09:57:14;23.40;99.90
16666;DHT22;8446;50.998;6.250;2023-05-07T09:59:43;23.70;99.90
16666;DHT22;8446;50.998;6.250;2023-05-07T10:02:11;23.90;99.90
16666;DHT22;8446;50.998;6.250;2023-05-07T10:04:39;23.90;99.90
16666;DHT22;8446;50.998;6.250;2023-05-07T10:07:07;24.10;99.90
16666;DHT22;8446;50.998;6.250;2023-05-07T10:09:36;24.10;99.90
16666;DHT22;8446;50.998;6.250;2023-05-07T10:12:06;24.20;99.90
16666;DHT22;8446;50.998;6.250;2023-05-07T10:14:34;24.20;99.90
16666;DHT22;8446;50.998;6.250;2023-05-07T10:17:02;24.20;99.90
16666;DHT22;8446;50.998;6.250;2023-05-07T10:19:29;24.20;99.90
16666;DHT22;8446;50.998;6.250;2023-05-07T10:21:59;24.40;99.90
16666;DHT22;8446;50.998;6.250;2023-05-07T10:24:32;24.50;99.90
16666;DHT22;8446;50.998;6.250;2023-05-07T10:27:01;24.50;99.90
16666;DHT22;8446;50.998;6.250;2023-05-07T10:29:37;24.40;99.90
16666;DHT22;8446;50.998;6.250;2023-05-07T10:32:34;24.50;99.90
16666;DHT22;8446;50.998;6.250;2023-05-07T10:35:06;24.80;99.90
16666;DHT22;8446;50.998;6.250;2023-05-07T10:37:35;24.70;99.90
16666;DHT22;8446;50.998;6.250;2023-05-07T10:40:03;24.80;99.90
16666;DHT22;8446;50.998;6.250;2023-05-07T10:42:32;24.80;99.90
16666;DHT22;8446;50.998;6.250;2023-05-07T10:45:12;24.90;99.90
16666;DHT22;8446;50.998;6.250;2023-05-07T10:48:05;25.20;99.90
16666;DHT22;8446;50.998;6.250;2023-05-07T10:50:32;25.40;99.90
16666;DHT22;8446;50.998;6.250;2023-05-07T10:53:21;25.40;99.90
16666;DHT22;8446;50.998;6.250;2023-05-07T10:55:50;25.20;99.90
16666;DHT22;8446;50.998;6.250;2023-05-07T10:58:24;25.10;99.90
16666;DHT22;8446;50.998;6.250;2023-05-07T11:00:56;25.10;99.90
16666;DHT22;8446;50.998;6.250;2023-05-07T11:03:24;25.00;99.90
16666;DHT22;8446;50.998;6.250;2023-05-07T11:06:08;24.90;99.90
16666;DHT22;8446;50.998;6.250;2023-05-07T11:08:55;24.70;99.90
16666;DHT22;8446;50.998;6.250;2023-05-07T11:11:47;24.60;99.90
16666;DHT22;8446;50.998;6.250;2023-05-07T11:14:43;24.20;99.90
16666;DHT22;8446;50.998;6.250;2023-05-07T11:17:12;23.80;99.90
16666;DHT22;8446;50.998;6.250;2023-05-07T11:19:48;23.60;99.90
16666;DHT22;8446;50.998;6.250;2023-05-07T11:22:37;23.70;99.90
16666;DHT22;8446;50.998;6.250;2023-05-07T11:25:06;23.60;99.90
16666;DHT22;8446;50.998;6.250;2023-05-07T11:27:34;23.40;99.90
16666;DHT22;8446;50.998;6.250;2023-05-07T11:30:01;23.30;99.90
16666;DHT22;8446;50.998;6.250;2023-05-07T11:32:31;23.40;99.90
16666;DHT22;8446;50.998;6.250;2023-05-07T11:34:58;23.60;99.90
16666;DHT22;8446;50.998;6.250;2023-05-07T11:37:26;23.80;99.90
16666;DHT22;8446;50.998;6.250;2023-05-07T11:40:02;23.90;99.90
16666;DHT22;8446;50.998;6.250;2023-05-07T11:42:31;24.00;99.90
16666;DHT22;8446;50.998;6.250;2023-05-07T11:44:59;24.20;99.90
16666;DHT22;8446;50.998;6.250;2023-05-07T11:47:26;24.40;99.90
16666;DHT22;8446;50.998;6.250;2023-05-07T11:50:02;24.70;99.90
16666;DHT22;8446;50.998;6.250;2023-05-07T11:52:29;24.70;99.90
16666;DHT22;8446;50.998;6.250;2023-05-07T11:54:57;25.00;99.90
16666;DHT22;8446;50.998;6.250;2023-05-07T11:57:25;25.10;99.90
16666;DHT22;8446;50.998;6.250;2023-05-07T11:59:53;25.30;99.90
16666;DHT22;8446;50.998;6.250;2023-05-07T12:02:20;25.60;99.90
16666;DHT22;8446;50.998;6.250;2023-05-07T12:04:47;25.90;99.90
16666;DHT22;8446;50.998;6.250;2023-05-07T12:07:15;25.80;99.90
16666;DHT22;8446;50.998;6.250;2023-05-07T12:09:42;25.80;99.90
16666;DHT22;8446;50.998;6.250;2023-05-07T12:12:09;25.60;99.90
16666;DHT22;8446;50.998;6.250;2023-05-07T12:14:37;25.50;99.90
16666;DHT22;8446;50.998;6.250;2023-05-07T12:17:05;25.40;99.90
16666;DHT22;8446;50.998;6.250;2023-05-07T12:19:33;25.20;99.90
16666;DHT22;8446;50.998;6.250;2023-05-07T12:22:02;25.30;99.90
16666;DHT22;8446;50.998;6.250;2023-05-07T12:24:43;25.30;99.90
16666;DHT22;8446;50.998;6.250;2023-05-07T12:27:09;24.90;99.90
16666;DHT22;8446;50.998;6.250;2023-05-07T12:29:36;24.70;99.90
16666;DHT22;8446;50.998;6.250;2023-05-07T12:32:05;24.60;99.90
16666;DHT22;8446;50.998;6.250;2023-05-07T12:34:32;24.40;99.90
16666;DHT22;8446;50.998;6.250;2023-05-07T12:37:02;24.10;99.90
16666;DHT22;8446;50.998;6.250;2023-05-07T12:39:30;24.00;99.90
16666;DHT22;8446;50.998;6.250;2023-05-07T12:41:59;23.70;99.90
16666;DHT22;8446;50.998;6.250;2023-05-07T12:44:29;23.40;99.90
16666;DHT22;8446;50.998;6.250;2023-05-07T12:46:56;23.20;99.90
16666;DHT22;8446;50.998;6.250;2023-05-07T12:49:23;23.00;99.90
16666;DHT22;8446;50.998;6.250;2023-05-07T12:51:50;22.90;99.90
16666;DHT22;8446;50.998;6.250;2023-05-07T12:54:29;22.70;99.90
16666;DHT22;8446;50.998;6.250;2023-05-07T12:57:03;22.50;99.90
16666;DHT22;8446;50.998;6.250;2023-05-07T12:59:32;21.60;99.90
16666;DHT22;8446;50.998;6.250;2023-05-07T13:01:58;20.80;99.90
16666;DHT22;8446;50.998;6.250;2023-05-07T13:04:25;19.90;99.90
16666;DHT22;8446;50.998;6.250;2023-05-07T13:06:52;19.70;99.90
16666;DHT22;8446;50.998;6.250;2023-05-07T13:09:19;19.50;99.90
16666;DHT22;8446;50.998;6.250;2023-05-07T13:11:47;19.10;99.90
16666;DHT22;8446;50.998;6.250;2023-05-07T13:14:13;18.30;99.90
16666;DHT22;8446;50.998;6.250;2023-05-07T13:16:40;17.10;99.90
16666;DHT22;8446;50.998;6.250;2023-05-07T13:19:07;16.20;99.90
16666;DHT22;8446;50.998;6.250;2023-05-07T13:21:34;16.10;99.90
16666;DHT22;8446;50.998;6.250;2023-05-07T13:24:01;16.10;99.90
16666;DHT22;8446;50.998;6.250;2023-05-07T13:26:30;16.00;99.90
16666;DHT22;8446;50.998;6.250;2023-05-07T13:28:58;15.90;99.90
16666;DHT22;8446;50.998;6.250;2023-05-07T13:31:25;15.80;99.90
16666;DHT22;8446;50.998;6.250;2023-05-07T13:33:51;15.70;99.90
16666;DHT22;8446;50.998;6.250;2023-05-07T13:36:19;15.70;99.90
16666;DHT22;8446;50.998;6.250;2023-05-07T13:38:46;15.80;99.90
16666;DHT22;8446;50.998;6.250;2023-05-07T13:41:13;15.70;99.90
16666;DHT22;8446;50.998;6.250;2023-05-07T13:43:40;15.70;99.90
16666;DHT22;8446;50.998;6.250;2023-05-07T13:46:08;15.80;99.90
16666;DHT22;8446;50.998;6.250;2023-05-07T13:48:35;15.90;99.90
16666;DHT22;8446;50.998;6.250;2023-05-07T13:51:01;16.10;99.90
16666;DHT22;8446;50.998;6.250;2023-05-07T13:53:28;16.20;99.90
16666;DHT22;8446;50.998;6.250;2023-05-07T13:55:55;16.30;99.90
16666;DHT22;8446;50.998;6.250;2023-05-07T13:58:22;16.30;99.90
16666;DHT22;8446;50.998;6.250;2023-05-07T14:00:48;16.50;99.90
16666;DHT22;8446;50.998;6.250;2023-05-07T14:03:16;16.60;99.90
16666;DHT22;8446;50.998;6.250;2023-05-07T14:05:45;16.70;99.90
16666;DHT22;8446;50.998;6.250;2023-05-07T14:08:11;16.90;99.90
16666;DHT22;8446;50.998;6.250;2023-05-07T14:10:39;17.10;99.90
16666;DHT22;8446;50.998;6.250;2023-05-07T14:13:06;17.30;99.90
16666;DHT22;8446;50.998;6.250;2023-05-07T14:15:33;17.40;99.90
16666;DHT22;8446;50.998;6.250;2023-05-07T14:18:00;17.50;99.90
16666;DHT22;8446;50.998;6.250;2023-05-07T14:20:28;17.60;99.90
16666;DHT22;8446;50.998;6.250;2023-05-07T14:22:56;17.70;99.90
16666;DHT22;8446;50.998;6.250;2023-05-07T14:25:23;17.70;99.90
16666;DHT22;8446;50.998;6.250;2023-05-07T14:27:49;17.70;99.90
16666;DHT22;8446;50.998;6.250;2023-05-07T14:30:16;17.70;99.90
16666;DHT22;8446;50.998;6.250;2023-05-07T14:32:43;17.80;99.90
16666;DHT22;8446;50.998;6.250;2023-05-07T14:35:10;17.80;99.90
16666;DHT22;8446;50.998;6.250;2023-05-07T14:37:38;18.00;99.90
16666;DHT22;8446;50.998;6.250;2023-05-07T14:40:06;18.00;99.90
16666;DHT22;8446;50.998;6.250;2023-05-07T14:42:33;18.00;99.90
16666;DHT22;8446;50.998;6.250;2023-05-07T14:44:59;18.10;99.90
16666;DHT22;8446;50.998;6.250;2023-05-07T14:47:26;18.10;99.90
16666;DHT22;8446;50.998;6.250;2023-05-07T14:49:54;18.10;99.90
16666;DHT22;8446;50.998;6.250;2023-05-07T14:52:22;18.10;99.90
16666;DHT22;8446;50.998;6.250;2023-05-07T14:54:51;18.10;99.90
16666;DHT22;8446;50.998;6.250;2023-05-07T14:57:18;18.20;99.90
16666;DHT22;8446;50.998;6.250;2023-05-07T14:59:45;18.20;99.90
16666;DHT22;8446;50.998;6.250;2023-05-07T15:02:12;18.30;99.90
16666;DHT22;8446;50.998;6.250;2023-05-07T15:04:39;18.20;99.90
16666;DHT22;8446;50.998;6.250;2023-05-07T15:07:11;18.20;99.90
16666;DHT22;8446;50.998;6.250;2023-05-07T15:09:40;18.20;99.90
16666;DHT22;8446;50.998;6.250;2023-05-07T15:12:08;18.30;99.90
16666;DHT22;8446;50.998;6.250;2023-05-07T15:14:35;18.40;99.90
16666;DHT22;8446;50.998;6.250;2023-05-07T15:17:02;18.40;99.90
16666;DHT22;8446;50.998;6.250;2023-05-07T15:19:28;18.40;99.90
16666;DHT22;8446;50.998;6.250;2023-05-07T15:21:57;18.40;99.90
16666;DHT22;8446;50.998;6.250;2023-05-07T15:24:25;18.50;99.90
16666;DHT22;8446;50.998;6.250;2023-05-07T15:26:52;18.60;99.90
16666;DHT22;8446;50.998;6.250;2023-05-07T15:29:20;18.60;99.90
16666;DHT22;8446;50.998;6.250;2023-05-07T15:31:47;18.60;99.90
16666;DHT22;8446;50.998;6.250;2023-05-07T15:34:14;18.60;99.90
16666;DHT22;8446;50.998;6.250;2023-05-07T15:36:42;18.60;99.90
16666;DHT22;8446;50.998;6.250;2023-05-07T15:39:08;18.60;99.90
16666;DHT22;8446;50.998;6.250;2023-05-07T15:41:36;18.60;99.90
16666;DHT22;8446;50.998;6.250;2023-05-07T15:44:03;18.60;99.90
16666;DHT22;8446;50.998;6.250;2023-05-07T15:46:32;18.60;99.90
16666;DHT22;8446;50.998;6.250;2023-05-07T15:49:01;18.60;99.90
16666;DHT22;8446;50.998;6.250;2023-05-07T15:51:28;18.60;99.90